Time;durP1;ratioP1;P1;durP2;ratioP2;P2;SDS_P1;SDS_P2;PMS_P1;PMS_P2;Temp;Humidity;BMP_temperature;BMP_pressure;BME280_temperature;BME280_humidity;BME280_pressure;Samples;Min_cycle;Max_cycle;Signal;HPM_P1;HPM_P2
2023/06/29 00:01:13;;;;;;;12.15;10.00;;;22.70;66.40;;;;;;10328931;28;20579;-59
2023/06/29 00:06:13;;;;;;;10.70;8.40;;;22.70;66.30;;;;;;10329048;28;20105;-58
2023/06/29 00:11:14;;;;;;;11.32;8.63;;;22.70;66.30;;;;;;10316785;28;20405;-58
2023/06/29 00:16:16;;;;;;;11.73;9.18;;;22.70;66.20;;;;;;10317736;28;20561;-56
2023/06/29 00:21:17;;;;;;;10.95;9.85;;;22.70;66.20;;;;;;10328669;28;20027;-58
2023/06/29 00:26:18;;;;;;;11.30;9.18;;;22.70;66.10;;;;;;10328605;28;20057;-58
2023/06/29 00:31:22;;;;;;;13.25;9.55;;;22.70;66.10;;;;;;10327038;28;20441;-58
2023/06/29 00:36:23;;;;;;;11.95;9.60;;;22.70;66.00;;;;;;10327736;28;20398;-58
2023/06/29 00:41:23;;;;;;;11.65;9.68;;;22.70;66.00;;;;;;10326376;28;20054;-58
2023/06/29 00:46:24;;;;;;;10.60;8.85;;;22.70;66.00;;;;;;10327721;28;20521;-57
2023/06/29 00:51:25;;;;;;;12.73;9.40;;;22.70;66.10;;;;;;10327336;28;20038;-59
2023/06/29 00:56:30;;;;;;;11.93;9.85;;;22.70;66.20;;;;;;10327357;28;20015;-58
2023/06/29 01:01:31;;;;;;;12.90;9.25;;;22.70;66.30;;;;;;10327148;28;20027;-58
2023/06/29 01:06:40;;;;;;;11.60;9.10;;;22.70;66.30;;;;;;10326807;28;20631;-59
2023/06/29 01:11:42;;;;;;;13.13;10.98;;;22.60;66.20;;;;;;10317824;28;20034;-58
2023/06/29 01:16:43;;;;;;;11.30;9.68;;;22.70;66.30;;;;;;10319447;28;20010;-58
2023/06/29 01:22:00;;;;;;;11.23;9.27;;;22.70;66.30;;;;;;10325142;28;20080;-59
2023/06/29 01:27:03;;;;;;;10.35;9.25;;;22.60;66.30;;;;;;10322797;28;20035;-58
2023/06/29 01:32:07;;;;;;;9.90;8.88;;;22.70;66.30;;;;;;10324601;28;20382;-58
2023/06/29 01:37:19;;;;;;;10.55;8.90;;;22.60;66.20;;;;;;10325712;28;20042;-58
2023/06/29 01:42:21;;;;;;;10.13;8.63;;;22.60;66.30;;;;;;10315464;28;20088;-59
2023/06/29 01:47:22;;;;;;;9.70;8.57;;;22.70;66.20;;;;;;10291438;28;20430;-58
2023/06/29 01:52:24;;;;;;;9.45;8.38;;;22.60;66.30;;;;;;10317998;28;20026;-57
2023/06/29 01:57:25;;;;;;;10.48;8.75;;;22.60;66.20;;;;;;10318730;28;20022;-58
2023/06/29 02:02:25;;;;;;;10.23;8.48;;;22.60;66.20;;;;;;10303871;28;20014;-59
2023/06/29 02:07:26;;;;;;;12.30;9.20;;;22.60;66.20;;;;;;10321508;28;20498;-59
2023/06/29 02:12:27;;;;;;;10.57;9.27;;;22.60;66.30;;;;;;10322115;28;20027;-59
2023/06/29 02:17:27;;;;;;;10.48;8.57;;;22.60;66.30;;;;;;10324340;28;20476;-58
2023/06/29 02:22:28;;;;;;;11.13;9.40;;;22.60;66.90;;;;;;10324095;28;20050;-59
2023/06/29 02:27:29;;;;;;;11.20;8.98;;;22.60;66.40;;;;;;10324018;28;20294;-60
2023/06/29 02:32:29;;;;;;;11.30;9.45;;;22.60;66.40;;;;;;10313149;28;20021;-58
2023/06/29 02:37:30;;;;;;;11.27;8.93;;;22.60;66.40;;;;;;10323910;28;20077;-58
2023/06/29 02:42:32;;;;;;;12.52;9.63;;;22.60;66.40;;;;;;10323576;28;20105;-57
2023/06/29 02:47:32;;;;;;;10.80;9.30;;;22.60;66.40;;;;;;10323753;28;20034;-57
2023/06/29 02:52:33;;;;;;;11.98;9.40;;;22.60;66.40;;;;;;10322052;28;20474;-56
2023/06/29 02:57:34;;;;;;;10.23;8.85;;;22.60;66.40;;;;;;10323494;28;20105;-58
2023/06/29 03:02:34;;;;;;;12.00;9.23;;;22.60;66.40;;;;;;10327399;28;20101;-58
2023/06/29 03:07:35;;;;;;;11.35;8.73;;;22.60;66.40;;;;;;10331837;28;20035;-59
2023/06/29 03:12:36;;;;;;;9.65;8.60;;;22.60;66.40;;;;;;10313920;28;20046;-57
2023/06/29 03:17:37;;;;;;;10.38;8.65;;;22.60;66.40;;;;;;10330863;28;20026;-58
2023/06/29 03:22:37;;;;;;;10.18;8.90;;;22.60;66.30;;;;;;10316161;28;20027;-59
2023/06/29 03:27:38;;;;;;;10.35;9.18;;;22.60;66.40;;;;;;10330302;28;20486;-59
2023/06/29 03:32:39;;;;;;;10.63;8.93;;;22.60;66.30;;;;;;10310603;28;20109;-58
2023/06/29 03:37:39;;;;;;;9.90;8.90;;;22.60;66.80;;;;;;10342931;28;20044;-58
2023/06/29 03:42:46;;;;;;;11.00;8.88;;;22.60;67.10;;;;;;10328039;28;20139;-57
2023/06/29 03:47:46;;;;;;;11.40;9.35;;;22.70;67.30;;;;;;10326712;28;20019;-58
2023/06/29 03:52:47;;;;;;;12.07;8.88;;;22.70;67.40;;;;;;10327556;28;20107;-59
2023/06/29 03:57:48;;;;;;;10.25;8.27;;;22.70;67.00;;;;;;10326246;28;20029;-59
2023/06/29 04:02:49;;;;;;;11.73;9.05;;;22.70;67.30;;;;;;10327275;28;20109;-58
2023/06/29 04:07:50;;;;;;;13.27;10.20;;;22.70;67.30;;;;;;10325358;28;20034;-58
2023/06/29 04:12:51;;;;;;;11.45;8.52;;;22.70;67.30;;;;;;10325170;28;20026;-59
2023/06/29 04:17:52;;;;;;;10.35;7.70;;;22.70;67.20;;;;;;10326204;28;20097;-59
2023/06/29 04:22:52;;;;;;;10.25;7.53;;;22.70;67.10;;;;;;10326418;28;20500;-58
2023/06/29 04:27:53;;;;;;;11.23;7.90;;;22.60;66.90;;;;;;10325662;28;20545;-59
2023/06/29 04:32:56;;;;;;;8.63;7.38;;;22.60;66.70;;;;;;10326231;28;20583;-59
2023/06/29 04:37:56;;;;;;;10.73;8.63;;;22.60;66.60;;;;;;10324574;28;20046;-57
2023/06/29 04:42:57;;;;;;;11.75;9.13;;;22.60;66.70;;;;;;10322282;28;20537;-58
2023/06/29 04:47:59;;;;;;;10.25;7.90;;;22.60;67.20;;;;;;10326184;28;20050;-59
2023/06/29 04:53:09;;;;;;;10.07;7.82;;;22.60;66.80;;;;;;10309388;28;20021;-59
2023/06/29 04:58:09;;;;;;;8.43;7.10;;;22.60;66.70;;;;;;10326869;28;20054;-59
2023/06/29 05:03:10;;;;;;;9.48;7.85;;;22.60;66.60;;;;;;10326487;28;20117;-59
2023/06/29 05:08:11;;;;;;;10.93;8.10;;;22.60;66.60;;;;;;10315291;28;20113;-56
2023/06/29 05:13:12;;;;;;;10.73;9.23;;;22.60;66.60;;;;;;10325718;28;20026;-58
2023/06/29 05:18:13;;;;;;;10.90;8.88;;;22.60;67.50;;;;;;10326456;28;20029;-57
2023/06/29 05:23:13;;;;;;;11.18;8.82;;;22.80;67.30;;;;;;10325411;28;20018;-59
2023/06/29 05:28:14;;;;;;;12.27;8.70;;;22.90;67.60;;;;;;10326030;28;20034;-58
2023/06/29 05:33:15;;;;;;;11.18;9.93;;;22.90;67.80;;;;;;10320032;28;20068;-59
2023/06/29 05:38:15;;;;;;;15.25;11.00;;;22.90;67.70;;;;;;10322311;28;20092;-58
2023/06/29 05:43:16;;;;;;;19.55;9.65;;;22.90;67.50;;;;;;10324475;28;20069;-57
2023/06/29 05:48:17;;;;;;;12.45;9.30;;;22.90;67.60;;;;;;10323652;28;20109;-60
2023/06/29 05:53:17;;;;;;;16.00;9.93;;;22.90;67.60;;;;;;10307784;28;20122;-59
2023/06/29 05:58:18;;;;;;;16.08;9.93;;;22.80;67.60;;;;;;10325299;28;20101;-58
2023/06/29 06:03:20;;;;;;;14.38;9.25;;;22.80;67.70;;;;;;10314442;28;20026;-58
2023/06/29 06:08:21;;;;;;;13.25;9.23;;;22.70;67.60;;;;;;10324516;28;20068;-56
2023/06/29 06:13:21;;;;;;;13.95;10.07;;;22.70;67.60;;;;;;10324107;28;20428;-60
2023/06/29 06:18:22;;;;;;;16.45;8.80;;;22.80;68.20;;;;;;10324700;28;20022;-59
2023/06/29 06:23:23;;;;;;;21.77;9.73;;;22.70;67.90;;;;;;10324375;28;20027;-58
2023/06/29 06:28:27;;;;;;;13.07;10.75;;;22.70;67.90;;;;;;10317820;28;20286;-59
2023/06/29 06:33:30;;;;;;;13.85;9.55;;;22.70;68.10;;;;;;10318558;28;20022;-59
2023/06/29 06:38:30;;;;;;;13.43;9.48;;;22.70;67.90;;;;;;10321762;28;20073;-58
2023/06/29 06:43:31;;;;;;;13.93;10.55;;;22.70;67.90;;;;;;10321686;28;20423;-59
2023/06/29 06:48:32;;;;;;;14.18;9.20;;;22.70;67.90;;;;;;10321549;28;20130;-58
2023/06/29 06:53:32;;;;;;;12.50;9.50;;;22.70;68.00;;;;;;10310942;28;20521;-56
2023/06/29 06:58:34;;;;;;;13.52;9.40;;;22.70;67.90;;;;;;10311571;28;20025;-59
2023/06/29 07:03:34;;;;;;;14.30;10.35;;;22.70;67.90;;;;;;10321323;28;20050;-58
2023/06/29 07:08:35;;;;;;;11.93;9.38;;;22.70;67.90;;;;;;10321351;28;20141;-58
2023/06/29 07:13:36;;;;;;;11.98;9.30;;;22.70;67.90;;;;;;10320830;28;20046;-54
2023/06/29 07:18:36;;;;;;;12.43;9.13;;;22.70;67.80;;;;;;10320879;28;20382;-58
2023/06/29 07:23:37;;;;;;;12.25;9.60;;;22.70;67.80;;;;;;10320998;28;20022;-59
2023/06/29 07:28:38;;;;;;;13.65;9.90;;;22.70;67.70;;;;;;10320669;28;20092;-57
2023/06/29 07:33:38;;;;;;;10.77;8.85;;;22.70;67.70;;;;;;10319693;28;20101;-58
2023/06/29 07:38:39;;;;;;;13.85;9.82;;;22.70;67.60;;;;;;10320863;28;20544;-59
2023/06/29 07:43:41;;;;;;;11.95;9.20;;;22.70;67.60;;;;;;10308486;28;20114;-59
2023/06/29 07:48:42;;;;;;;11.38;9.05;;;22.70;67.70;;;;;;10314462;28;20037;-58
2023/06/29 07:53:43;;;;;;;11.70;9.75;;;22.70;67.60;;;;;;10317722;28;20478;-59
2023/06/29 07:58:44;;;;;;;13.07;10.68;;;22.80;67.60;;;;;;10318646;28;20026;-59
2023/06/29 08:03:45;;;;;;;13.10;10.57;;;22.80;67.40;;;;;;10319882;28;20470;-59
2023/06/29 08:08:46;;;;;;;13.20;10.60;;;22.80;67.40;;;;;;10325637;28;20120;-58
2023/06/29 08:13:46;;;;;;;11.40;9.13;;;22.80;67.30;;;;;;10325753;28;20105;-59
2023/06/29 08:18:47;;;;;;;13.05;9.70;;;22.80;67.30;;;;;;10327008;28;20070;-58
2023/06/29 08:23:49;;;;;;;11.88;10.20;;;22.80;67.20;;;;;;10326551;28;20057;-57
2023/06/29 08:28:50;;;;;;;11.80;10.30;;;22.80;67.20;;;;;;10326412;28;20404;-58
2023/06/29 08:33:51;;;;;;;11.70;9.07;;;22.80;67.20;;;;;;10324815;28;20022;-55
2023/06/29 08:38:52;;;;;;;11.77;9.25;;;22.80;67.20;;;;;;10325819;28;20140;-57
2023/06/29 08:43:53;;;;;;;12.70;9.13;;;22.80;67.70;;;;;;10299040;28;20054;-56
2023/06/29 08:48:55;;;;;;;12.90;10.80;;;22.90;66.80;;;;;;10325585;28;20494;-57
2023/06/29 08:53:56;;;;;;;12.88;11.07;;;22.90;66.60;;;;;;10324622;28;20022;-59
2023/06/29 08:58:57;;;;;;;12.40;9.27;;;22.90;66.50;;;;;;10324167;28;20161;-58
2023/06/29 09:03:58;;;;;;;13.32;9.93;;;22.90;66.50;;;;;;10319986;28;20084;-58
2023/06/29 09:08:59;;;;;;;11.52;9.77;;;22.90;66.50;;;;;;10323774;28;20563;-58
2023/06/29 09:14:06;;;;;;;11.82;9.15;;;23.00;66.50;;;;;;10307170;28;20019;-58
2023/06/29 09:19:07;;;;;;;11.65;9.93;;;22.90;66.40;;;;;;10323661;28;20040;-59
2023/06/29 09:24:08;;;;;;;12.80;11.32;;;23.00;66.40;;;;;;10324138;28;20110;-59
2023/06/29 09:29:08;;;;;;;11.95;10.65;;;23.00;66.30;;;;;;10279828;28;20089;-59
2023/06/29 09:34:21;;;;;;;11.13;9.07;;;23.00;66.30;;;;;;10313119;28;20022;-58
2023/06/29 09:39:22;;;;;;;14.35;10.95;;;23.00;66.30;;;;;;10323770;28;20046;-57
2023/06/29 09:44:24;;;;;;;12.07;9.80;;;23.00;66.20;;;;;;10316892;28;20077;-57
2023/06/29 09:49:25;;;;;;;12.13;10.50;;;23.00;66.10;;;;;;10318390;28;20440;-57
2023/06/29 09:54:26;;;;;;;11.88;9.80;;;23.00;66.20;;;;;;10323789;28;20021;-57
2023/06/29 09:59:27;;;;;;;12.32;10.02;;;23.00;66.20;;;;;;10323427;28;20053;-59
2023/06/29 10:04:28;;;;;;;12.88;10.00;;;23.10;66.20;;;;;;10323302;28;20022;-57
2023/06/29 10:09:29;;;;;;;13.45;10.30;;;23.00;66.10;;;;;;10321957;28;20117;-58
2023/06/29 10:14:32;;;;;;;11.93;10.43;;;23.00;66.10;;;;;;10320946;28;20027;-57
2023/06/29 10:19:35;;;;;;;13.70;11.25;;;23.00;69.70;;;;;;10320981;28;20534;-58
2023/06/29 10:25:00;;;;;;;12.48;10.55;;;23.20;71.10;;;;;;10320764;28;20508;-57
2023/06/29 10:30:05;;;;;;;13.07;11.48;;;23.30;70.20;;;;;;10336820;28;20034;-58
2023/06/29 10:35:12;;;;;;;13.88;10.90;;;23.30;70.10;;;;;;10336575;28;20029;-58
2023/06/29 10:40:22;;;;;;;13.38;11.55;;;23.40;70.10;;;;;;10308328;28;20050;-56
2023/06/29 10:45:23;;;;;;;14.40;11.27;;;23.30;69.80;;;;;;10321618;28;20081;-58
2023/06/29 10:50:31;;;;;;;14.55;11.80;;;23.40;69.60;;;;;;10322150;28;20039;-59
2023/06/29 10:55:53;;;;;;;20.33;11.82;;;23.30;69.30;;;;;;10320836;28;20022;-59
2023/06/29 11:00:55;;;;;;;12.40;10.07;;;23.30;69.90;;;;;;10320453;28;20011;-58
2023/06/29 11:05:58;;;;;;;15.88;12.43;;;23.30;69.00;;;;;;10320069;28;20026;-57
2023/06/29 11:11:15;;;;;;;13.93;10.95;;;23.30;68.70;;;;;;10319832;28;20027;-58
2023/06/29 11:16:17;;;;;;;12.15;10.10;;;23.30;68.40;;;;;;10320008;28;20022;-55
2023/06/29 11:21:21;;;;;;;15.00;11.65;;;23.30;68.10;;;;;;10321115;28;20022;-58
2023/06/29 11:26:22;;;;;;;13.65;11.20;;;23.30;68.00;;;;;;10327604;28;20018;-58
2023/06/29 11:31:24;;;;;;;13.52;10.68;;;23.30;67.90;;;;;;10311213;28;20027;-59
2023/06/29 11:36:30;;;;;;;12.98;10.85;;;23.30;67.80;;;;;;10327149;28;20049;-57
2023/06/29 11:41:31;;;;;;;16.83;12.15;;;23.30;67.70;;;;;;10328258;28;20608;-59
2023/06/29 11:46:33;;;;;;;13.90;11.98;;;23.40;67.50;;;;;;10325321;28;20026;-58
2023/06/29 11:51:38;;;;;;;11.02;9.80;;;23.30;67.40;;;;;;10326503;28;20030;-59
2023/06/29 11:56:42;;;;;;;14.80;11.43;;;23.30;67.50;;;;;;10326555;28;20421;-59
2023/06/29 12:01:47;;;;;;;15.18;12.25;;;23.30;67.40;;;;;;10327380;28;20065;-57
2023/06/29 12:06:58;;;;;;;16.42;12.70;;;23.30;67.10;;;;;;10310102;28;20514;-59
2023/06/29 12:12:01;;;;;;;15.85;11.20;;;23.30;67.20;;;;;;10326910;28;20030;-62
2023/06/29 12:17:02;;;;;;;13.82;11.15;;;23.40;66.90;;;;;;10321038;28;20023;-58
2023/06/29 12:22:12;;;;;;;13.05;10.68;;;23.30;66.50;;;;;;10326765;28;20022;-58
2023/06/29 12:27:12;;;;;;;12.98;10.55;;;23.30;66.50;;;;;;10325018;28;20114;-57
2023/06/29 12:32:13;;;;;;;13.70;11.40;;;23.30;66.50;;;;;;10326107;28;20031;-59
2023/06/29 12:37:14;;;;;;;13.30;10.32;;;23.40;66.40;;;;;;10314092;28;20062;-59
2023/06/29 12:42:14;;;;;;;14.93;10.73;;;23.40;66.40;;;;;;10326058;28;20121;-59
2023/06/29 12:47:15;;;;;;;15.80;11.95;;;23.40;66.30;;;;;;10324558;28;20026;-59
2023/06/29 12:52:17;;;;;;;13.80;10.65;;;23.40;66.30;;;;;;10325461;28;21196;-58
2023/06/29 12:57:25;;;;;;;13.57;10.43;;;23.40;66.30;;;;;;10324306;28;20421;-59
2023/06/29 13:02:26;;;;;;;15.32;12.23;;;23.40;66.30;;;;;;10324008;28;20027;-57
2023/06/29 13:07:28;;;;;;;15.52;11.75;;;23.30;66.20;;;;;;10323461;28;20025;-57
2023/06/29 13:12:29;;;;;;;14.20;11.63;;;23.30;66.40;;;;;;10323692;28;20521;-58
2023/06/29 13:17:30;;;;;;;15.73;11.75;;;23.30;66.50;;;;;;10323402;28;20050;-59
2023/06/29 13:22:31;;;;;;;14.57;12.10;;;23.20;66.60;;;;;;10323074;28;20108;-59
2023/06/29 13:27:33;;;;;;;15.00;13.05;;;23.20;66.80;;;;;;10324356;28;20101;-57
2023/06/29 13:32:34;;;;;;;14.65;11.70;;;23.20;67.10;;;;;;10322343;28;20030;-59
2023/06/29 13:37:34;;;;;;;13.70;10.60;;;23.20;67.20;;;;;;10322611;28;20046;-59
2023/06/29 13:42:35;;;;;;;13.98;11.68;;;23.20;67.20;;;;;;10315363;28;20113;-58
2023/06/29 13:47:41;;;;;;;15.82;11.77;;;23.20;67.40;;;;;;10322593;28;20062;-59
2023/06/29 13:52:41;;;;;;;17.48;13.25;;;23.20;67.40;;;;;;10317911;28;20081;-57
2023/06/29 13:57:42;;;;;;;13.63;11.65;;;23.20;67.50;;;;;;10321769;28;20054;-58
2023/06/29 14:02:43;;;;;;;13.88;12.00;;;23.20;67.50;;;;;;10321551;28;20118;-58
2023/06/29 14:07:43;;;;;;;15.80;12.75;;;23.20;67.60;;;;;;10323122;28;20172;-58
2023/06/29 14:12:44;;;;;;;14.70;11.88;;;23.20;67.60;;;;;;10322561;28;20064;-55
2023/06/29 14:17:45;;;;;;;14.13;11.25;;;23.20;67.60;;;;;;10322318;28;20105;-58
2023/06/29 14:22:45;;;;;;;13.63;11.45;;;23.10;67.60;;;;;;10311982;28;20508;-57
2023/06/29 14:27:46;;;;;;;15.88;11.75;;;23.10;67.60;;;;;;10321113;28;20157;-58
2023/06/29 14:32:47;;;;;;;15.48;12.40;;;23.10;67.60;;;;;;10320765;28;20101;-56
2023/06/29 14:37:48;;;;;;;15.30;11.93;;;23.10;67.60;;;;;;10321640;28;20047;-56
2023/06/29 14:42:49;;;;;;;14.90;12.18;;;23.10;67.50;;;;;;10321682;28;20113;-56
2023/06/29 14:47:49;;;;;;;14.40;11.77;;;23.10;67.40;;;;;;10321010;28;20447;-56
2023/06/29 14:52:50;;;;;;;13.23;11.48;;;23.10;67.40;;;;;;10321643;28;20505;-55
2023/06/29 14:57:51;;;;;;;13.98;11.80;;;23.20;67.40;;;;;;10325284;28;20581;-55
2023/06/29 15:02:51;;;;;;;13.18;10.68;;;23.20;67.30;;;;;;10328507;28;20062;-55
2023/06/29 15:07:52;;;;;;;12.35;10.95;;;23.20;67.50;;;;;;10315678;28;20117;-56
2023/06/29 15:12:53;;;;;;;16.08;12.00;;;23.20;67.10;;;;;;10326191;28;20214;-56
2023/06/29 15:17:53;;;;;;;15.13;11.77;;;23.10;66.90;;;;;;10328659;28;20110;-55
2023/06/29 15:22:54;;;;;;;13.88;11.38;;;23.20;67.00;;;;;;10324462;28;20473;-56
2023/06/29 15:27:57;;;;;;;16.08;12.20;;;23.20;67.50;;;;;;10312090;28;20109;-57
2023/06/29 15:32:58;;;;;;;15.38;10.77;;;23.30;67.20;;;;;;10329203;28;20045;-56
2023/06/29 15:37:59;;;;;;;13.50;10.68;;;23.50;67.60;;;;;;10330470;28;20086;-55
2023/06/29 15:42:59;;;;;;;14.75;11.05;;;23.60;67.40;;;;;;10329676;28;20160;-57
2023/06/29 15:48:00;;;;;;;18.08;11.55;;;23.70;66.90;;;;;;10328642;28;20122;-56
2023/06/29 15:53:01;;;;;;;18.48;11.57;;;23.70;67.90;;;;;;10328746;28;20112;-57
2023/06/29 15:58:01;;;;;;;14.18;10.50;;;23.70;67.90;;;;;;10329821;28;20018;-56
2023/06/29 16:03:02;;;;;;;17.75;11.20;;;23.80;68.40;;;;;;10329100;28;20065;-56
2023/06/29 16:08:03;;;;;;;17.60;11.93;;;23.70;68.30;;;;;;10328705;28;20191;-56
2023/06/29 16:13:04;;;;;;;17.60;10.80;;;23.80;68.70;;;;;;10329115;28;20050;-56
2023/06/29 16:18:05;;;;;;;19.98;11.25;;;23.70;68.70;;;;;;10328041;28;20490;-56
2023/06/29 16:23:06;;;;;;;14.75;10.65;;;23.70;68.50;;;;;;10327643;28;20077;-59
2023/06/29 16:28:06;;;;;;;17.70;11.25;;;23.60;68.60;;;;;;10325377;28;20173;-57
2023/06/29 16:33:07;;;;;;;16.58;11.10;;;23.60;68.40;;;;;;10324124;28;20444;-58
2023/06/29 16:38:07;;;;;;;20.80;11.88;;;23.60;68.20;;;;;;10355567;28;20088;-58
2023/06/29 16:43:08;;;;;;;16.80;9.98;;;23.70;68.20;;;;;;10367868;28;20026;-57
2023/06/29 16:48:09;;;;;;;15.90;10.68;;;23.70;68.10;;;;;;10337658;28;20036;-56
2023/06/29 16:53:09;;;;;;;17.40;11.00;;;23.70;67.90;;;;;;10367810;28;20104;-56
2023/06/29 16:58:10;;;;;;;18.60;10.38;;;23.70;67.80;;;;;;10367996;28;20054;-57
2023/06/29 17:03:11;;;;;;;21.60;11.43;;;23.60;67.80;;;;;;10367503;28;20034;-59
2023/06/29 17:08:11;;;;;;;18.50;10.82;;;23.70;67.90;;;;;;10367425;28;20048;-57
2023/06/29 17:13:12;;;;;;;13.32;8.93;;;23.70;68.00;;;;;;10350159;28;20869;-57
2023/06/29 17:18:14;;;;;;;15.68;10.43;;;23.60;68.10;;;;;;10366934;28;20045;-58
2023/06/29 17:23:17;;;;;;;15.88;10.85;;;23.50;68.20;;;;;;10365901;28;20108;-58
2023/06/29 17:28:20;;;;;;;14.50;9.50;;;23.50;68.30;;;;;;10341293;28;20022;-57
2023/06/29 17:33:21;;;;;;;13.13;9.23;;;23.50;68.10;;;;;;10346286;28;20014;-57
2023/06/29 17:38:22;;;;;;;13.43;8.80;;;23.50;68.10;;;;;;10331459;28;20505;-57
2023/06/29 17:43:22;;;;;;;16.90;9.75;;;23.50;68.10;;;;;;10366424;28;20030;-59
2023/06/29 17:48:23;;;;;;;13.02;8.07;;;23.50;68.20;;;;;;10336134;28;20026;-59
2023/06/29 17:53:24;;;;;;;10.80;8.10;;;23.50;68.10;;;;;;10322062;28;20030;-58
2023/06/29 17:58:25;;;;;;;12.85;7.85;;;23.50;68.20;;;;;;10366050;28;20117;-58
2023/06/29 18:03:25;;;;;;;13.15;8.13;;;23.50;68.10;;;;;;10364996;28;20102;-58
2023/06/29 18:08:26;;;;;;;11.80;6.95;;;23.50;68.10;;;;;;10340486;28;20481;-58
2023/06/29 18:13:27;;;;;;;10.60;7.32;;;23.40;68.10;;;;;;10334579;28;20109;-58
2023/06/29 18:18:28;;;;;;;10.10;7.75;;;23.40;68.10;;;;;;10346864;28;20018;-58
2023/06/29 18:23:28;;;;;;;10.18;6.95;;;23.30;68.20;;;;;;10364097;28;20026;-58
2023/06/29 18:28:29;;;;;;;7.93;6.05;;;23.30;68.00;;;;;;10329673;28;20100;-58
2023/06/29 18:33:30;;;;;;;10.15;7.43;;;23.30;68.00;;;;;;10345897;28;20014;-58
2023/06/29 18:38:31;;;;;;;8.48;6.50;;;23.20;68.10;;;;;;10322184;28;20152;-57
2023/06/29 18:43:31;;;;;;;8.75;5.90;;;23.20;68.00;;;;;;10321128;28;20030;-58
2023/06/29 18:48:32;;;;;;;10.73;6.47;;;23.20;68.40;;;;;;10315549;28;20040;-58
2023/06/29 18:53:33;;;;;;;9.15;6.28;;;23.30;68.30;;;;;;10305283;28;20025;-58
2023/06/29 18:58:34;;;;;;;7.13;5.35;;;23.20;68.30;;;;;;10319243;28;20026;-57
2023/06/29 19:03:34;;;;;;;7.30;6.10;;;23.20;67.90;;;;;;10319333;28;20022;-57
2023/06/29 19:08:36;;;;;;;9.30;4.90;;;23.20;67.90;;;;;;10322532;28;20044;-56
2023/06/29 19:13:37;;;;;;;9.77;5.50;;;23.10;67.60;;;;;;10321699;28;20489;-57
2023/06/29 19:18:37;;;;;;;7.68;5.68;;;23.10;67.70;;;;;;10322410;28;20018;-57
2023/06/29 19:23:42;;;;;;;8.15;5.30;;;23.10;67.70;;;;;;10322369;28;20474;-59
2023/06/29 19:28:43;;;;;;;6.85;5.22;;;23.10;67.50;;;;;;10318416;28;20069;-58
2023/06/29 19:33:44;;;;;;;6.30;4.32;;;23.10;67.40;;;;;;10314252;28;20135;-57
2023/06/29 19:38:45;;;;;;;7.07;4.78;;;23.10;67.20;;;;;;10317972;28;20744;-58
2023/06/29 19:43:45;;;;;;;7.75;4.68;;;23.10;67.20;;;;;;10323353;28;20025;-58
2023/06/29 19:48:46;;;;;;;6.95;4.40;;;23.10;67.10;;;;;;10329021;28;20109;-57
2023/06/29 19:53:47;;;;;;;6.25;4.30;;;23.10;67.00;;;;;;10328638;28;20046;-57
2023/06/29 19:58:47;;;;;;;7.47;4.93;;;23.10;66.90;;;;;;10322337;28;20063;-57
2023/06/29 20:03:48;;;;;;;7.85;5.00;;;23.00;66.80;;;;;;10322163;28;20050;-57
2023/06/29 20:08:49;;;;;;;7.05;5.43;;;23.10;66.80;;;;;;10327983;28;20122;-57
2023/06/29 20:13:50;;;;;;;4.55;3.80;;;23.00;66.70;;;;;;10328957;28;20125;-57
2023/06/29 20:18:51;;;;;;;6.80;4.03;;;23.00;66.60;;;;;;10327545;28;20423;-57
2023/06/29 20:23:51;;;;;;;6.22;3.90;;;23.00;66.60;;;;;;10325949;28;20129;-57
2023/06/29 20:28:52;;;;;;;5.63;3.78;;;23.00;66.50;;;;;;10328479;28;20030;-57
2023/06/29 20:33:53;;;;;;;5.95;4.53;;;23.00;66.50;;;;;;10300858;28;20058;-58
2023/06/29 20:38:53;;;;;;;5.07;3.60;;;23.00;66.40;;;;;;10363685;28;20488;-57
2023/06/29 20:43:54;;;;;;;7.00;4.05;;;23.00;66.40;;;;;;10341185;28;20393;-57
2023/06/29 20:48:55;;;;;;;5.55;4.05;;;23.00;66.40;;;;;;10367761;28;20034;-57
2023/06/29 20:53:55;;;;;;;6.25;3.95;;;23.00;66.40;;;;;;10367290;28;20110;-57
2023/06/29 20:58:56;;;;;;;7.88;3.70;;;22.90;66.30;;;;;;10336718;28;20804;-57
2023/06/29 21:03:57;;;;;;;4.93;3.75;;;22.90;66.40;;;;;;10367216;28;20056;-58
2023/06/29 21:08:57;;;;;;;5.15;3.67;;;22.90;66.30;;;;;;10366953;28;20112;-56
2023/06/29 21:13:58;;;;;;;5.22;3.53;;;22.90;66.30;;;;;;10347406;28;20133;-57
2023/06/29 21:18:59;;;;;;;4.75;3.28;;;22.90;66.20;;;;;;10366797;28;20100;-57
2023/06/29 21:24:00;;;;;;;5.03;3.42;;;22.90;66.30;;;;;;10366402;28;20018;-57
2023/06/29 21:29:02;;;;;;;4.97;2.88;;;22.90;66.30;;;;;;10332702;28;20026;-57
2023/06/29 21:34:03;;;;;;;4.38;2.92;;;22.90;66.90;;;;;;10325467;28;20651;-57
2023/06/29 21:39:04;;;;;;;4.80;3.13;;;22.90;66.20;;;;;;10347799;28;20095;-57
2023/06/29 21:44:05;;;;;;;3.78;2.83;;;22.90;66.30;;;;;;10365905;28;20026;-57
2023/06/29 21:49:05;;;;;;;5.25;3.25;;;22.90;66.30;;;;;;10365678;28;20060;-57
2023/06/29 21:54:08;;;;;;;4.80;3.17;;;22.90;66.20;;;;;;10348360;28;20104;-57
2023/06/29 21:59:08;;;;;;;3.33;2.50;;;22.90;66.20;;;;;;10365233;28;20022;-56
2023/06/29 22:04:09;;;;;;;5.07;3.42;;;22.90;66.30;;;;;;10334219;28;20554;-57
2023/06/29 22:09:10;;;;;;;3.95;2.30;;;22.90;66.20;;;;;;10345009;28;20530;-57
2023/06/29 22:14:11;;;;;;;3.45;2.65;;;22.80;66.10;;;;;;10364885;28;20045;-58
2023/06/29 22:19:15;;;;;;;4.68;3.10;;;22.80;66.10;;;;;;10364685;28;20029;-57
2023/06/29 22:24:15;;;;;;;4.68;3.00;;;22.80;66.10;;;;;;10330263;28;20105;-57
2023/06/29 22:29:16;;;;;;;3.97;2.70;;;22.80;66.10;;;;;;10336461;28;20458;-60
2023/06/29 22:34:19;;;;;;;4.53;2.80;;;22.80;66.10;;;;;;10347679;28;20057;-59
2023/06/29 22:39:20;;;;;;;4.45;3.03;;;22.80;66.10;;;;;;10347042;28;20053;-57
2023/06/29 22:44:20;;;;;;;3.72;2.33;;;22.80;66.00;;;;;;10341487;28;20113;-57
2023/06/29 22:49:21;;;;;;;4.38;2.72;;;22.80;66.10;;;;;;10329048;28;20061;-57
2023/06/29 22:54:22;;;;;;;4.35;2.45;;;22.80;66.10;;;;;;10346898;28;20488;-57
2023/06/29 22:59:22;;;;;;;3.80;2.75;;;22.80;66.10;;;;;;10364404;28;20038;-56
2023/06/29 23:04:23;;;;;;;5.18;2.90;;;22.80;66.10;;;;;;10345575;28;20122;-57
2023/06/29 23:09:24;;;;;;;3.10;2.05;;;22.80;66.10;;;;;;10333422;28;20066;-57
2023/06/29 23:14:25;;;;;;;3.67;2.28;;;22.80;66.00;;;;;;10363635;28;20080;-58
2023/06/29 23:19:26;;;;;;;4.13;2.70;;;22.80;66.00;;;;;;10326331;28;20022;-58
2023/06/29 23:24:27;;;;;;;4.03;2.92;;;22.80;66.00;;;;;;10327692;28;20053;-57
2023/06/29 23:29:27;;;;;;;4.93;2.97;;;22.70;65.90;;;;;;10344755;28;20820;-57
2023/06/29 23:34:28;;;;;;;3.30;2.28;;;22.70;65.80;;;;;;10371424;28;20052;-57
2023/06/29 23:39:34;;;;;;;3.50;2.28;;;22.70;66.20;;;;;;10371070;28;20489;-57
2023/06/29 23:44:40;;;;;;;3.22;1.90;;;22.70;65.60;;;;;;10370870;28;20018;-57
2023/06/29 23:49:41;;;;;;;4.07;2.60;;;22.70;65.60;;;;;;10351276;28;20037;-57
2023/06/29 23:54:42;;;;;;;3.13;1.60;;;22.70;65.60;;;;;;10370837;28;20006;-57
2023/06/29 23:59:43;;;;;;;3.60;2.78;;;22.70;65.60;;;;;;10327039;28;20483;-57
